Nearby METAR Reports

 

EGHI - Southampton Wx C, Hampshire, United Kingdom
Distance from station: SE 2mi, 3km
Updated: 24/01/2019 08:50
Mist, Partly cloudy
Mist, Partly cloudy
 Wind from calm
Wind: Calm
Temperature: -4°C
Dew Point: -4°C
Humidity: 100%
Barometer: 1012 hPa
Summary: Mist
Clouds: Partly cloudy
Visibility: 3 miles , 5 km
2019/01/24 08:50 EGHI 240850Z 00000KT 5000 R20/1300 BR NSC M04/M04 Q1012
EGVP - Middle Wallop, Hampshire, United Kingdom
Distance from station: NW 14mi, 23km
Updated: 24/01/2019 08:50
Mist, Mostly cloudy
Mist, Mostly cloudy
 Wind from NW
Wind: NW 1 mph , 2 km/h
Temperature: -2°C
Dew Point: -2°C
Humidity: 100%
Barometer: 1011 hPa
Summary: Mist
Clouds: Mostly cloudy
Visibility: 5 miles , 8 km
Cloud details: Mostly cloudy 1097 m
Mostly cloudy 1524 m
2019/01/24 08:50 EGVP 240850Z 32001KT 8000 BR BKN036 BKN050 M02/M02 Q1011 BLU
 
EGDM - Boscombe Down, Dorset, United Kingdom
Distance from station: NW 21mi, 34km
Updated: 24/01/2019 08:50
Mostly cloudy
Mostly cloudy
 Wind from S
Wind: S 2 mph , 4 km/h
Temperature: 0°C
Dew Point: -1°C
Humidity: 93%
Barometer: 1011 hPa
Clouds: Mostly cloudy
Visibility: 6 miles , 10 km
Cloud details: Few Clouds 762 m
Mostly cloudy 1067 m
2019/01/24 08:50 EGDM 240850Z 17002KT 9999 FEW025 BKN035 M00/M01 Q1011 BLU NOSIG
EGHH - Bournemouth Airp, Dorset, United Kingdom
Distance from station: WSW 23mi, 38km
Updated: 24/01/2019 08:50
Mostly cloudy
Mostly cloudy
 Wind from NNW
Wind: NNW 1 mph , 2 km/h
Temperature: -1°C
Dew Point: -2°C
Humidity: 93%
Barometer: 1011 hPa
Clouds: Mostly cloudy
Visibility: 5 miles , 8 km
Cloud details: Mostly cloudy 1189 m
2019/01/24 08:50 EGHH 240850Z 33001KT 8000 BKN039 M01/M02 Q1011
 
EGVO - Odiham Raf, Hampshire, United Kingdom
Distance from station: NE 26mi, 42km
Updated: 24/01/2019 08:50
Mostly cloudy
Mostly cloudy
 Wind from WSW
Wind: WSW 9 mph , 15 km/h
Temperature: 1°C
Wind Chill: -3°C
Dew Point: -2°C
Humidity: 81%
Barometer: 1010 hPa
Clouds: Mostly cloudy
Visibility: 6 miles , 10 km
Cloud details: Partly cloudy 1280 m
Mostly cloudy 5486 m
2019/01/24 08:50 EGVO 240850Z 24008KT 9999 SCT042 BKN180 01/M02 Q1010 BLU NOSIG
EGLF - Farnborough, Hampshire, United Kingdom
Distance from station: NE 34mi, 56km
Updated: 24/01/2019 08:50
Partly cloudy
Partly cloudy
 Wind from calm
Wind: Calm
Temperature: -3°C
Dew Point: -4°C
Humidity: 93%
Barometer: 1011 hPa
Clouds: Partly cloudy
Visibility: 6 miles , 9 km
2019/01/24 08:50 EGLF 240850Z 00000KT 9000 NSC M03/M04 Q1011
 
EGDL - Lyneham Raf, Wiltshire, United Kingdom
Distance from station: NW 45mi, 72km
Updated: 21/06/2013 08:50
NOT Current
Mostly cloudy
Mostly cloudy
 Wind from WSW
Wind: WSW 9 mph , 15 km/h
Temperature: 14°C
Dew Point: 14°C
Humidity: 100%
Barometer: 1010 hPa
Clouds: Mostly cloudy
Cloud details: Mostly cloudy 61 m
Mostly cloudy 427 m
2013/06/21 07:50 EGDL 210750Z AUTO 25008KT //// // BKN002/// BKN014/// 14/14 Q1010
EGUB - Benson Raf, Oxfordshire, United Kingdom
Distance from station: NNE 47mi, 76km
Updated: 24/01/2019 08:50
Mostly cloudy
Mostly cloudy
 Wind from S
Wind: S 7 mph , 11 km/h
Temperature: 1°C
Wind Chill: -2°C
Dew Point: 0°C
Humidity: 93%
Barometer: 1010 hPa
Clouds: Mostly cloudy
Visibility: 6 miles , 10 km
Cloud details: Few Clouds 457 m
Mostly cloudy 914 m
Mostly cloudy 1524 m
2019/01/24 08:50 EGUB 240850Z 17006KT 9999 FEW015 BKN030 BKN050 01/M00 Q1010 BLU TEMPO -RA SCT022 WHT
 
EGKA - Shoreham-By-Sea, West Sussex, United Kingdom
Distance from station: E 48mi, 77km
Updated: 24/01/2019 08:50
Clear
Clear
 Wind from NNE
Wind: NNE 1 mph , 2 km/h
Temperature: -3°C
Dew Point: -3°C
Humidity: 100%
Barometer: 1011 hPa
Summary: Clear
Visibility: greater than 7 miles , 10 km
2019/01/24 08:50 EGKA 240850Z 03001KT CAVOK M03/M03 Q1011
EGVA - Fairford Raf, Gloucestershire, United Kingdom
Distance from station: NNW 51mi, 82km
Updated: 24/01/2019 08:58
Light, Overcast
Light, Overcast
 Wind from W
Wind: W 3 mph , 6 km/h
Temperature: 0°C
Dew Point: -1°C
Humidity: 93%
Barometer: 1010.5 hPa
Summary: Light
Clouds: Overcast
Cloud details: Mostly cloudy 945 m
Overcast 1219 m
2019/01/24 08:58 EGVA 240858Z AUTO 26003KT M -UP BKN031 OVC040 00/M01 A2984 RMK AO2 UPB58 SLP114 RVRNO $
 
EGDY - Yeovilton (navy), Somerset, United Kingdom
Distance from station: W 54mi, 87km
Updated: 24/01/2019 08:50
Mostly cloudy
Mostly cloudy
 Wind from ENE
Wind: ENE 1 mph , 2 km/h
Temperature: 1°C
Dew Point: 1°C
Humidity: 100%
Barometer: 1011 hPa
Clouds: Mostly cloudy
Visibility: 6 miles , 10 km
Cloud details: Few Clouds 610 m
Mostly cloudy 1067 m
2019/01/24 08:50 EGDY 240850Z 07001KT 9999 FEW020 BKN035 01/01 Q1011 BLU BECMG SCT020 WHT
EGKK - London/Gatwick A, West Sussex, United Kingdom
Distance from station: ENE 54mi, 87km
Updated: 24/01/2019 08:50
Partly cloudy
Partly cloudy
 Wind from varies
Wind: varies 3 mph , 6 km/h
Temperature: -2°C
Dew Point: -2°C
Humidity: 100%
Barometer: 1011 hPa
Clouds: Partly cloudy
Visibility: 4 miles , 7 km
2019/01/24 08:50 EGKK 240850Z VRB03KT 7000 NSC M02/M02 Q1011
 
EGLL - London/Heathrow, Middlesex, United Kingdom
Distance from station: NE 54mi, 87km
Updated: 24/01/2019 08:50
Mist, Clear
Mist, Clear
 Wind from varies
Wind: varies 3 mph , 6 km/h
Temperature: 0°C
Dew Point: -1°C
Humidity: 93%
Barometer: 1011 hPa
Summary: Mist
Clouds: Clear
Visibility: 3 miles , 5 km
2019/01/24 08:50 EGLL 240850Z AUTO VRB03KT 5000 BR NCD M00/M01 Q1011 TEMPO -FZRA
EGVN - Brize Norton Raf, Oxfordshire, United Kingdom
Distance from station: N 56mi, 90km
Updated: 24/01/2019 08:50
Mostly cloudy
Mostly cloudy
 Wind from W
Wind: W 3 mph , 6 km/h
Temperature: 1°C
Dew Point: 0°C
Humidity: 93%
Barometer: 1010 hPa
Clouds: Mostly cloudy
Visibility: 6 miles , 10 km
Cloud details: Partly cloudy 975 m
Mostly cloudy 1463 m
2019/01/24 08:50 EGVN 240850Z 26003KT 9999 SCT032 BKN048 01/00 Q1010 BLU NOSIG
 
EGWU - Northolt Raf, Middlesex, United Kingdom
Distance from station: NE 58mi, 93km
Updated: 24/01/2019 09:00
Mist, Mostly cloudy
Mist, Mostly cloudy
 Wind from NNW
Wind: NNW 1 mph , 2 km/h
Temperature: -1°C
Dew Point: -1°C
Humidity: 100%
Barometer: 1011 hPa
Summary: Mist
Clouds: Mostly cloudy
Visibility: 3 miles , 5 km
Cloud details: Partly cloudy 1036 m
Partly cloudy 1829 m
Mostly cloudy 2743 m
2019/01/24 09:00 EGWU 240900Z 33001KT 5000 BR SCT034 SCT060 BKN090 M01/M01 Q1011 WHT TEMPO 4000 -RADZ BKN024 GRN
EGGD - Bristol/Lulsgate, Somerset, United Kingdom
Distance from station: WNW 64mi, 103km
Updated: 24/01/2019 08:50
Mostly cloudy
Mostly cloudy
 Wind from WSW
Wind: WSW 6 mph , 9 km/h
Temperature: 4°C
Wind Chill: 2°C
Dew Point: 4°C
Humidity: 100%
Barometer: 1010 hPa
Clouds: Mostly cloudy
Visibility: 6 miles , 10 km
Cloud details: Partly cloudy 549 m
Mostly cloudy 701 m
2019/01/24 08:50 EGGD 240850Z AUTO 24005KT 9999 SCT018 BKN023 04/04 Q1010
 
EGKB - Biggin Hill, Kent,United Kingdom
Distance from station: ENE 65mi, 105km
Updated: 24/01/2019 08:50
Clear
Clear
 Wind from SSW
Wind: SSW 7 mph , 11 km/h
Temperature: 0°C
Wind Chill: -4°C
Dew Point: -2°C
Humidity: 87%
Barometer: 1010 hPa
Summary: Clear
Visibility: greater than 7 miles , 10 km
2019/01/24 08:50 EGKB 240850Z 21006KT CAVOK 00/M02 Q1010
EGLC - London City Airp, Greater London, United Kingdom
Distance from station: ENE 72mi, 116km
Updated: 24/01/2019 08:50
Mostly cloudy
Mostly cloudy
 Wind from WSW
Wind: WSW 6 mph , 9 km/h, Gust: 17 mph , 28 km/h
Temperature: 2°C
Wind Chill: -1°C
Dew Point: -1°C
Humidity: 81%
Barometer: 1011 hPa
Clouds: Mostly cloudy
Visibility: 6 miles , 9 km
Cloud details: Mostly cloudy 1372 m
2019/01/24 08:50 EGLC 240850Z AUTO 24005G15KT 190V300 9000 BKN045 02/M01 Q1011
 
EGBJ - Staverton, Northamptonshire, United Kingdom
Distance from station: NNW 73mi, 117km
Updated: 24/01/2019 08:50
Mostly cloudy
Mostly cloudy
 Wind from SW
Wind: SW 2 mph , 4 km/h
Temperature: 4°C
Dew Point: 3°C
Humidity: 93%
Barometer: 1010 hPa
Clouds: Mostly cloudy
Visibility: 6 miles , 10 km
Cloud details: Mostly cloudy 914 m
2019/01/24 08:50 EGBJ 240850Z 22002KT 9999 BKN030 04/03 Q1010
EGGW - Luton Airport, Bedfordshire, United Kingdom
Distance from station: NE 76mi, 122km
Updated: 24/01/2019 08:50
Light rain, Thunderstorm
Light rain, Thunderstorm
 Wind from SW
Wind: SW 6 mph , 9 km/h
Temperature: 1°C
Wind Chill: -2°C
Dew Point: 0°C
Humidity: 93%
Barometer: 1010 hPa
Summary: Light rain
Clouds: Thunderstorm
Visibility: 6 miles , 10 km
Cloud details: Mostly cloudy 671 m
Mostly cloudy 975 m
2019/01/24 08:50 EGGW 240850Z AUTO 22005KT 9999 -RA BKN022/// BKN032/// //////TCU 01/M00 Q1010